createdAt,value
2018-02-19T00:01:40.654Z,102695.11
2018-02-19T00:04:43.139Z,102695.25
2018-02-19T00:07:45.113Z,102693.36
2018-02-19T00:10:47.051Z,102687.61
2018-02-19T00:13:49.029Z,102688.48
2018-02-19T00:16:50.970Z,102685.76
2018-02-19T00:19:52.960Z,102681.25
2018-02-19T00:22:54.950Z,102674.35
2018-02-19T00:25:56.916Z,102669.87
2018-02-19T00:28:59.067Z,102673.18
2018-02-19T00:32:01.023Z,102668.91
2018-02-19T00:35:03.017Z,102669.10
2018-02-19T00:38:04.976Z,102668.10
2018-02-19T00:41:06.943Z,102667.08
2018-02-19T00:44:08.906Z,102664.85
2018-02-19T00:47:10.850Z,102655.14
2018-02-19T00:50:12.831Z,102648.66
2018-02-19T00:53:14.813Z,102645.83
2018-02-19T00:56:16.778Z,102648.34
2018-02-19T00:59:18.755Z,102652.10
2018-02-19T01:02:20.691Z,102644.64
2018-02-19T01:05:22.725Z,102637.94
2018-02-19T01:08:24.750Z,102635.87
2018-02-19T01:11:26.699Z,102627.48
2018-02-19T01:14:28.682Z,102624.71
2018-02-19T01:17:30.632Z,102622.10
2018-02-19T01:20:32.586Z,102621.57
2018-02-19T01:23:34.578Z,102614.66
2018-02-19T01:26:36.511Z,102610.09
2018-02-19T01:29:38.506Z,102604.80
2018-02-19T01:32:40.494Z,102600.84
2018-02-19T01:35:42.518Z,102595.92
2018-02-19T01:38:44.486Z,102594.66
2018-02-19T01:41:46.466Z,102586.82
2018-02-19T01:44:48.448Z,102588.59
2018-02-19T01:47:50.415Z,102578.97
2018-02-19T01:50:52.369Z,102568.73
2018-02-19T01:53:54.425Z,102564.11
2018-02-19T01:56:56.360Z,102562.69
2018-02-19T01:59:58.355Z,102565.18
2018-02-19T02:03:00.342Z,102564.91
2018-02-19T02:06:02.308Z,102554.83
2018-02-19T02:09:04.270Z,102548.93
2018-02-19T02:12:06.237Z,102542.08
2018-02-19T02:15:08.207Z,102537.69
2018-02-19T02:18:10.177Z,102537.36
2018-02-19T02:21:12.193Z,102536.26
2018-02-19T02:24:14.085Z,102533.13
2018-02-19T02:27:16.069Z,102534.51
2018-02-19T02:30:18.030Z,102527.43
2018-02-19T02:33:19.996Z,102531.01
2018-02-19T02:36:21.967Z,102527.08
2018-02-19T02:39:24.000Z,102525.75
2018-02-19T02:42:25.999Z,102529.05
2018-02-19T02:45:28.084Z,102524.55
2018-02-19T02:48:30.025Z,102523.24
2018-02-19T02:51:32.035Z,102521.13
2018-02-19T02:54:34.071Z,102523.59
2018-02-19T02:57:36.036Z,102518.98
2018-02-19T03:00:38.027Z,102521.93
2018-02-19T03:03:39.959Z,102522.73
2018-02-19T03:06:42.004Z,102522.14
2018-02-19T03:09:43.992Z,102524.77
2018-02-19T03:12:46.030Z,102528.05
2018-02-19T03:15:48.021Z,102528.78
2018-02-19T03:18:50.026Z,102532.24
2018-02-19T03:21:51.979Z,102530.60
2018-02-19T03:24:53.997Z,102533.42
2018-02-19T03:27:56.014Z,102536.11
2018-02-19T03:30:57.975Z,102539.14
2018-02-19T03:33:59.975Z,102543.49
2018-02-19T03:37:02.037Z,102542.41
2018-02-19T03:40:03.975Z,102540.05
2018-02-19T03:43:06.162Z,102536.83
2018-02-19T03:46:08.117Z,102531.78
2018-02-19T03:49:10.084Z,102525.06
2018-02-19T03:52:12.259Z,102524.83
2018-02-19T03:55:14.219Z,102521.18
2018-02-19T03:58:16.177Z,102522.58
2018-02-19T04:01:18.144Z,102516.78
2018-02-19T04:04:20.115Z,102505.55
2018-02-19T04:07:22.084Z,102501.90
2018-02-19T04:10:24.059Z,102496.77
2018-02-19T04:13:26.007Z,102502.16
2018-02-19T04:16:27.973Z,102498.43
2018-02-19T04:19:29.967Z,102494.80
2018-02-19T04:22:31.934Z,102497.19
2018-02-19T04:25:33.854Z,102494.07
2018-02-19T04:28:35.858Z,102490.33
2018-02-19T04:31:37.830Z,102483.61
2018-02-19T04:34:39.783Z,102477.89
2018-02-19T04:37:41.791Z,102488.64
2018-02-19T04:40:43.824Z,102487.36
2018-02-19T04:43:45.811Z,102489.68
2018-02-19T04:46:47.808Z,102498.72
2018-02-19T04:49:49.827Z,102502.87
2018-02-19T04:52:51.806Z,102494.99
2018-02-19T04:55:53.943Z,102500.70
2018-02-19T04:58:55.945Z,102497.56
2018-02-19T05:01:57.897Z,102494.43
2018-02-19T05:04:59.882Z,102497.22
2018-02-19T05:08:02.038Z,102493.12
2018-02-19T05:11:04.021Z,102489.98
2018-02-19T05:14:05.980Z,102488.60
2018-02-19T05:17:07.972Z,102486.70
2018-02-19T05:20:10.001Z,102481.47
2018-02-19T05:23:11.982Z,102486.49
2018-02-19T05:26:13.920Z,102483.03
2018-02-19T05:29:15.901Z,102476.70
2018-02-19T05:32:17.873Z,102477.73
2018-02-19T05:35:19.848Z,102481.01
2018-02-19T05:38:21.775Z,102477.92
2018-02-19T05:41:23.799Z,102477.31
2018-02-19T05:44:25.847Z,102486.40
2018-02-19T05:47:27.802Z,102487.52
2018-02-19T05:50:29.765Z,102487.39
2018-02-19T05:53:31.763Z,102486.98
2018-02-19T05:56:33.815Z,102484.11
2018-02-19T05:59:35.817Z,102491.80
2018-02-19T06:02:37.716Z,102483.47
2018-02-19T06:05:39.705Z,102486.15
2018-02-19T06:08:41.662Z,102493.79
2018-02-19T06:11:43.714Z,102490.36
2018-02-19T06:14:45.674Z,102485.77
2018-02-19T06:17:47.616Z,102489.62
2018-02-19T06:20:49.622Z,102499.69
2018-02-19T06:23:51.623Z,102499.82
2018-02-19T06:26:53.587Z,102492.39
2018-02-19T06:29:55.593Z,102495.66
2018-02-19T06:32:57.621Z,102494.05
2018-02-19T06:35:59.661Z,102497.40
2018-02-19T06:39:01.756Z,102494.24
2018-02-19T06:42:03.711Z,102493.90
2018-02-19T06:45:05.689Z,102493.99
2018-02-19T06:48:07.638Z,102492.79
2018-02-19T06:51:09.754Z,102487.54
2018-02-19T06:54:11.764Z,102484.86
2018-02-19T06:57:13.733Z,102485.71
2018-02-19T07:00:15.733Z,102478.44
2018-02-19T07:03:17.660Z,102478.81
2018-02-19T07:06:19.662Z,102481.04
2018-02-19T07:09:21.617Z,102479.09
2018-02-19T07:12:23.558Z,102477.36
2018-02-19T07:15:25.672Z,102475.64
2018-02-19T07:18:27.732Z,102475.08
2018-02-19T07:21:29.702Z,102474.46
2018-02-19T07:24:31.753Z,102470.23
2018-02-19T07:27:33.720Z,102472.43
2018-02-19T07:30:35.698Z,102469.73
2018-02-19T07:33:37.667Z,102472.19
2018-02-19T07:36:39.752Z,102473.64
2018-02-19T07:39:41.812Z,102466.99
2018-02-19T07:42:43.758Z,102463.78
2018-02-19T07:45:45.770Z,102465.56
2018-02-19T07:48:47.887Z,102458.02
2018-02-19T07:51:49.947Z,102447.97
2018-02-19T07:54:52.231Z,102448.90
2018-02-19T07:57:54.195Z,102444.12
2018-02-19T08:00:56.252Z,102446.82
2018-02-19T08:03:58.230Z,102444.25
2018-02-19T08:07:00.222Z,102445.10
2018-02-19T08:10:02.141Z,102447.16
2018-02-19T08:13:04.063Z,102444.09
2018-02-19T08:16:06.092Z,102450.48
2018-02-19T08:19:08.064Z,102455.00
2018-02-19T08:22:10.130Z,102451.56
2018-02-19T08:25:12.124Z,102447.67
2018-02-19T08:28:14.159Z,102441.23
2018-02-19T08:31:16.172Z,102438.77
2018-02-19T08:34:18.211Z,102440.77
2018-02-19T08:37:20.146Z,102437.80
2018-02-19T08:40:22.089Z,102442.25
2018-02-19T08:43:24.100Z,102439.79
2018-02-19T08:46:26.203Z,102442.45
2018-02-19T08:49:28.225Z,102433.93
2018-02-19T08:52:30.187Z,102435.12
2018-02-19T08:55:32.190Z,102433.02
2018-02-19T08:58:34.231Z,102426.64
2018-02-19T09:01:36.226Z,102426.21
2018-02-19T09:04:38.166Z,102420.47
2018-02-19T09:07:40.143Z,102418.55
2018-02-19T09:10:42.206Z,102410.72
2018-02-19T09:13:44.172Z,102411.85
2018-02-19T09:16:46.155Z,102409.64
2018-02-19T09:19:48.110Z,102404.80
2018-02-19T09:22:50.085Z,102405.10
2018-02-19T09:25:52.051Z,102399.39
2018-02-19T09:28:54.054Z,102395.99
2018-02-19T09:31:56.006Z,102396.77
2018-02-19T09:34:58.041Z,102393.43
2018-02-19T09:38:00.026Z,102394.61
2018-02-19T09:41:01.962Z,102392.46
2018-02-19T09:44:03.939Z,102387.74
2018-02-19T09:47:05.870Z,102388.13
2018-02-19T09:50:07.873Z,102383.26
2018-02-19T09:53:09.815Z,102376.25
2018-02-19T09:56:11.821Z,102377.09
2018-02-19T09:59:13.769Z,102374.48
2018-02-19T10:02:15.747Z,102374.89
2018-02-19T10:05:17.692Z,102372.98
2018-02-19T10:08:19.687Z,102371.80
2018-02-19T10:11:21.636Z,102364.84
2018-02-19T10:14:23.631Z,102361.91
2018-02-19T10:17:25.599Z,102355.31
2018-02-19T10:20:27.616Z,102354.49
2018-02-19T10:23:29.610Z,102360.13
2018-02-19T10:26:31.587Z,102362.77
2018-02-19T10:29:33.522Z,102359.49
2018-02-19T10:32:35.535Z,102361.06
2018-02-19T10:35:37.557Z,102367.88
2018-02-19T10:38:39.571Z,102360.83
2018-02-19T10:41:41.523Z,102363.51
2018-02-19T10:44:43.528Z,102360.17
2018-02-19T10:47:45.418Z,102356.72
2018-02-19T10:50:47.434Z,102361.95
2018-02-19T10:53:49.462Z,102358.86
2018-02-19T10:56:51.400Z,102353.53
2018-02-19T10:59:53.408Z,102354.15
2018-02-19T11:02:55.482Z,102354.54
2018-02-19T11:05:57.432Z,102343.84
2018-02-19T11:08:59.381Z,102342.74
2018-02-19T11:12:01.368Z,102336.31
2018-02-19T11:15:03.326Z,102336.66
2018-02-19T11:18:05.332Z,102329.42
2018-02-19T11:21:07.307Z,102324.64
2018-02-19T11:24:09.284Z,102321.60
2018-02-19T11:27:11.303Z,102320.16
2018-02-19T11:30:13.414Z,102316.92
2018-02-19T11:33:15.418Z,102315.12
2018-02-19T11:36:17.339Z,102308.53
2018-02-19T11:39:41.461Z,102301.02
2018-02-19T11:42:44.176Z,102299.31
2018-02-19T11:45:46.158Z,102289.86
2018-02-19T11:48:48.114Z,102289.81
2018-02-19T11:51:50.962Z,102287.96
2018-02-19T11:54:52.950Z,102283.09
2018-02-19T11:57:55.040Z,102281.78
2018-02-19T12:00:56.981Z,102283.88
2018-02-19T12:03:58.975Z,102284.25
2018-02-19T12:07:00.942Z,102280.44
2018-02-19T12:10:02.906Z,102283.89
2018-02-19T12:13:04.880Z,102283.47
2018-02-19T12:16:06.841Z,102277.84
2018-02-19T12:19:08.782Z,102277.04
2018-02-19T12:22:10.759Z,102268.28
2018-02-19T12:25:12.734Z,102268.08
2018-02-19T12:28:14.729Z,102265.77
2018-02-19T12:31:16.746Z,102261.74
2018-02-19T12:34:18.739Z,102257.73
2018-02-19T12:37:20.703Z,102260.18
2018-02-19T12:40:22.670Z,102255.29
2018-02-19T12:43:24.644Z,102255.40
2018-02-19T12:49:58.379Z,102242.19
2018-02-19T12:53:00.485Z,102245.12
2018-02-19T12:56:02.478Z,102242.74
2018-02-19T12:59:04.691Z,102239.61
2018-02-19T13:02:06.639Z,102244.25
2018-02-19T13:05:10.358Z,102244.81
2018-02-19T13:08:12.350Z,102245.52
2018-02-19T13:11:14.280Z,102236.91
2018-02-19T13:14:16.259Z,102230.45
2018-02-19T13:17:18.211Z,102232.57
2018-02-19T13:20:20.184Z,102230.03
2018-02-19T13:23:22.140Z,102228.63
2018-02-19T13:26:24.093Z,102227.29
2018-02-19T13:29:27.305Z,102223.50
2018-02-19T13:32:29.298Z,102218.20
2018-02-19T13:35:31.312Z,102212.94
2018-02-19T13:38:33.325Z,102214.66
2018-02-19T13:41:35.266Z,102208.40
2018-02-19T13:44:37.350Z,102206.33
2018-02-19T13:47:39.317Z,102203.78
2018-02-19T13:50:41.278Z,102198.98
2018-02-19T13:53:43.263Z,102197.32
2018-02-19T13:56:45.210Z,102193.16
2018-02-19T13:59:47.166Z,102191.45
2018-02-19T14:02:49.145Z,102188.84
2018-02-19T14:05:51.115Z,102194.70
2018-02-19T14:08:53.097Z,102192.39
2018-02-19T14:11:55.461Z,102194.46
2018-02-19T14:14:57.410Z,102190.48
2018-02-19T14:17:59.409Z,102192.69
2018-02-19T14:21:01.434Z,102192.48
2018-02-19T14:24:03.444Z,102191.59
2018-02-19T14:27:05.377Z,102188.58
2018-02-19T14:30:07.378Z,102186.25
2018-02-19T14:33:09.319Z,102185.51
2018-02-19T14:36:11.295Z,102180.10
2018-02-19T14:39:13.224Z,102182.49
2018-02-19T14:42:15.216Z,102191.30
2018-02-19T14:45:17.201Z,102190.23
2018-02-19T14:48:19.250Z,102189.92
2018-02-19T14:51:21.237Z,102192.33
2018-02-19T14:54:23.224Z,102190.41
2018-02-19T14:57:26.299Z,102182.98
2018-02-19T15:00:28.642Z,102180.77
2018-02-19T15:03:30.631Z,102177.30
2018-02-19T15:06:32.592Z,102173.73
2018-02-19T15:09:34.599Z,102170.37
2018-02-19T15:12:36.622Z,102173.33
2018-02-19T15:15:38.579Z,102172.54
2018-02-19T15:18:40.562Z,102166.07
2018-02-19T15:21:42.518Z,102175.62
2018-02-19T15:24:44.500Z,102179.52
2018-02-19T15:27:46.445Z,102176.50
2018-02-19T15:30:48.448Z,102179.42
2018-02-19T15:33:50.372Z,102171.82
2018-02-19T15:36:52.296Z,102165.66
2018-02-19T15:39:54.338Z,102167.18
2018-02-19T15:42:57.487Z,102173.10
2018-02-19T15:45:59.494Z,102169.21
2018-02-19T15:49:01.453Z,102164.24
2018-02-19T15:52:03.445Z,102160.72
2018-02-19T15:55:05.353Z,102160.61
2018-02-19T15:58:07.360Z,102161.09
2018-02-19T16:01:09.300Z,102160.93
2018-02-19T16:04:11.294Z,102162.09
2018-02-19T16:07:13.347Z,102163.62
2018-02-19T16:10:15.329Z,102158.10
2018-02-19T16:13:17.438Z,102159.93
2018-02-19T16:16:19.520Z,102158.62
2018-02-19T16:19:21.543Z,102157.21
2018-02-19T16:22:23.594Z,102157.13
2018-02-19T16:25:25.657Z,102153.04
2018-02-19T16:28:27.714Z,102157.69
2018-02-19T16:31:29.701Z,102156.47
2018-02-19T16:34:31.662Z,102151.20
2018-02-19T16:37:33.621Z,102151.46
2018-02-19T16:40:35.626Z,102155.22
2018-02-19T16:43:37.670Z,102156.41
2018-02-19T16:46:39.855Z,102156.38
2018-02-19T16:49:41.905Z,102157.09
2018-02-19T16:52:43.863Z,102155.49
2018-02-19T16:55:45.812Z,102153.09
2018-02-19T16:58:47.739Z,102148.53
2018-02-19T17:01:50.161Z,102143.22
2018-02-19T17:04:52.213Z,102139.01
2018-02-19T17:07:54.154Z,102135.54
2018-02-19T17:10:56.650Z,102146.24
2018-02-19T17:13:58.633Z,102146.17
2018-02-19T17:17:00.610Z,102145.77
2018-02-19T17:20:02.586Z,102145.69
2018-02-19T17:23:04.564Z,102142.20
2018-02-19T17:26:06.537Z,102139.04
2018-02-19T17:29:08.474Z,102139.35
2018-02-19T17:32:10.553Z,102139.56
2018-02-19T17:35:12.569Z,102143.52
2018-02-19T17:38:15.007Z,102144.74
2018-02-19T17:41:16.941Z,102143.50
2018-02-19T17:44:18.930Z,102141.63
2018-02-19T17:47:20.879Z,102142.84
2018-02-19T17:50:22.885Z,102150.38
2018-02-19T17:53:24.781Z,102149.44
2018-02-19T17:56:28.249Z,102152.63
2018-02-19T17:59:30.177Z,102143.61
2018-02-19T18:02:32.161Z,102138.87
2018-02-19T18:05:34.129Z,102138.25
2018-02-19T18:08:36.089Z,102135.37
2018-02-19T18:11:38.054Z,102136.45
2018-02-19T18:14:40.017Z,102131.06
2018-02-19T18:17:42.015Z,102127.17
2018-02-19T18:20:44.012Z,102124.11
2018-02-19T18:23:46.004Z,102126.47
2018-02-19T18:26:47.966Z,102129.09
2018-02-19T18:29:49.931Z,102122.28
2018-02-19T18:32:51.925Z,102124.99
2018-02-19T18:35:54.327Z,102122.21
2018-02-19T18:38:57.467Z,102120.44
2018-02-19T18:41:59.458Z,102117.35
2018-02-19T18:45:01.429Z,102117.35
2018-02-19T18:48:03.510Z,102120.59
2018-02-19T18:51:05.641Z,102115.69
2018-02-19T18:54:07.614Z,102109.56
2018-02-19T18:57:09.679Z,102111.29
2018-02-19T19:00:11.647Z,102112.65
2018-02-19T19:03:13.750Z,102112.38
2018-02-19T19:06:15.685Z,102108.18
2018-02-19T19:09:17.655Z,102109.44
2018-02-19T19:12:19.643Z,102117.31
2018-02-19T19:15:21.649Z,102120.21
2018-02-19T19:18:23.562Z,102124.65
2018-02-19T19:21:26.671Z,102125.17
2018-02-19T19:24:28.625Z,102124.27
2018-02-19T19:27:30.709Z,102123.57
2018-02-19T19:30:32.665Z,102127.88
2018-02-19T19:33:34.680Z,102130.86
2018-02-19T19:36:36.715Z,102124.92
2018-02-19T19:39:38.679Z,102121.34
2018-02-19T19:42:40.614Z,102123.79
2018-02-19T19:45:42.566Z,102122.68
2018-02-19T19:48:44.577Z,102111.49
2018-02-19T19:51:46.526Z,102106.27
2018-02-19T19:54:48.520Z,102105.39
2018-02-19T19:57:50.884Z,102106.46
2018-02-19T20:00:52.814Z,102104.72
2018-02-19T20:03:54.782Z,102102.35
2018-02-19T20:06:57.449Z,102104.59
2018-02-19T20:12:41.915Z,102096.40
2018-02-19T20:15:45.386Z,102098.71
2018-02-19T20:18:48.614Z,102098.46
2018-02-19T20:21:51.925Z,102093.58
2018-02-19T20:24:55.251Z,102092.44
2018-02-19T20:27:58.420Z,102097.29
2018-02-19T20:31:01.637Z,102102.02
2018-02-19T20:34:04.934Z,102097.00
2018-02-19T20:37:08.213Z,102096.29
2018-02-19T20:40:11.415Z,102096.80
2018-02-19T20:43:14.662Z,102094.55
2018-02-19T20:46:17.968Z,102092.49
2018-02-19T20:49:21.124Z,102084.30
2018-02-19T20:52:24.356Z,102085.25
2018-02-19T20:55:28.674Z,102088.63
2018-02-19T20:58:32.007Z,102084.78
2018-02-19T21:01:35.211Z,102085.12
2018-02-19T21:04:38.401Z,102081.16
2018-02-19T21:07:41.605Z,102079.80
2018-02-19T21:10:44.860Z,102075.61
2018-02-19T21:13:48.055Z,102074.62
2018-02-19T21:16:51.280Z,102076.46
2018-02-19T21:19:54.451Z,102070.93
2018-02-19T21:22:58.910Z,102062.33
2018-02-19T21:26:02.258Z,102061.91
2018-02-19T21:29:05.572Z,102060.67
2018-02-19T21:32:08.812Z,102052.94
2018-02-19T21:35:12.058Z,102044.96
2018-02-19T21:38:15.360Z,102042.00
2018-02-19T21:41:18.539Z,102036.01
2018-02-19T21:44:21.865Z,102038.35
2018-02-19T21:47:25.303Z,102028.72
2018-02-19T21:50:28.535Z,102030.13
2018-02-19T21:53:31.850Z,102025.97
2018-02-19T21:56:35.021Z,102027.32
2018-02-19T21:59:38.882Z,102024.50
2018-02-19T22:02:42.092Z,102022.17
2018-02-19T22:05:45.649Z,102018.19
2018-02-19T22:08:48.933Z,102020.14
2018-02-19T22:11:52.246Z,102027.65
2018-02-19T22:14:55.538Z,102023.32
2018-02-19T22:17:58.826Z,102023.01
2018-02-19T22:21:02.139Z,102018.18
2018-02-19T22:24:05.443Z,102023.69
2018-02-19T22:27:08.759Z,102022.84
2018-02-19T22:30:12.031Z,102020.38
2018-02-19T22:33:15.340Z,102019.09
2018-02-19T22:36:18.506Z,102019.27
2018-02-19T22:39:21.757Z,102019.14
2018-02-19T22:42:25.026Z,102021.30
2018-02-19T22:45:28.305Z,102013.03
2018-02-19T22:48:31.599Z,102016.77
2018-02-19T22:51:34.920Z,102016.65
2018-02-19T22:54:38.209Z,102013.19
2018-02-19T22:57:41.503Z,102016.82
2018-02-19T23:00:44.792Z,102020.27
2018-02-19T23:03:48.079Z,102018.85
2018-02-19T23:06:51.310Z,102022.05
2018-02-19T23:09:54.510Z,102017.93
2018-02-19T23:12:57.770Z,102022.42
2018-02-19T23:16:01.034Z,102025.07
2018-02-19T23:19:04.275Z,102020.90
2018-02-19T23:22:07.568Z,102018.02
2018-02-19T23:25:10.860Z,102016.72
2018-02-19T23:28:14.154Z,102019.03
2018-02-19T23:31:17.617Z,102011.76
2018-02-19T23:34:20.863Z,102015.02
2018-02-19T23:37:24.226Z,102019.30
2018-02-19T23:40:27.496Z,102018.46
2018-02-19T23:43:30.773Z,102015.03
2018-02-19T23:46:34.064Z,102010.61
2018-02-19T23:49:37.344Z,102015.47
2018-02-19T23:52:40.612Z,102016.21
2018-02-19T23:55:43.945Z,102017.52
2018-02-19T23:58:47.251Z,102014.03
